sensor_id;sensor_type;location;lat;lon;timestamp;pressure;altitude;pressure_sealevel;temperature;humidity
4273;BME280;63887;53.656;9.810;2023-02-07T00:00:33;104335.09;;;-2.60;96.83
4273;BME280;63887;53.656;9.810;2023-02-07T00:03:00;104327.31;;;-2.62;96.51
4273;BME280;63887;53.656;9.810;2023-02-07T00:05:26;104330.59;;;-2.64;96.38
4273;BME280;63887;53.656;9.810;2023-02-07T00:07:53;104326.34;;;-2.64;96.19
4273;BME280;63887;53.656;9.810;2023-02-07T00:10:19;104329.63;;;-2.66;96.08
4273;BME280;63887;53.656;9.810;2023-02-07T00:12:45;104322.34;;;-2.74;96.46
4273;BME280;63887;53.656;9.810;2023-02-07T00:15:13;104318.97;;;-2.73;96.19
4273;BME280;63887;53.656;9.810;2023-02-07T00:17:40;104327.56;;;-2.72;95.98
4273;BME280;63887;53.656;9.810;2023-02-07T00:20:07;104332.63;;;-2.74;96.06
4273;BME280;63887;53.656;9.810;2023-02-07T00:22:34;104328.44;;;-2.72;95.95
4273;BME280;63887;53.656;9.810;2023-02-07T00:25:00;104331.03;;;-2.72;95.72
4273;BME280;63887;53.656;9.810;2023-02-07T00:27:26;104326.69;;;-2.73;95.94
4273;BME280;63887;53.656;9.810;2023-02-07T00:29:53;104327.56;;;-2.72;96.15
4273;BME280;63887;53.656;9.810;2023-02-07T00:32:20;104329.00;;;-2.77;96.44
4273;BME280;63887;53.656;9.810;2023-02-07T00:34:47;104330.69;;;-2.78;96.13
4273;BME280;63887;53.656;9.810;2023-02-07T00:37:14;104328.13;;;-2.78;95.48
4273;BME280;63887;53.656;9.810;2023-02-07T00:39:41;104326.19;;;-2.82;95.63
4273;BME280;63887;53.656;9.810;2023-02-07T00:42:07;104330.13;;;-2.87;96.23
4273;BME280;63887;53.656;9.810;2023-02-07T00:44:35;104331.13;;;-2.85;95.98
4273;BME280;63887;53.656;9.810;2023-02-07T00:47:01;104329.44;;;-2.84;96.08
4273;BME280;63887;53.656;9.810;2023-02-07T00:49:29;104328.47;;;-2.86;95.90
4273;BME280;63887;53.656;9.810;2023-02-07T00:51:55;104321.81;;;-2.83;95.82
4273;BME280;63887;53.656;9.810;2023-02-07T00:54:22;104324.38;;;-2.83;95.78
4273;BME280;63887;53.656;9.810;2023-02-07T00:56:49;104316.66;;;-2.83;95.80
4273;BME280;63887;53.656;9.810;2023-02-07T00:59:17;104323.59;;;-2.82;95.88
4273;BME280;63887;53.656;9.810;2023-02-07T01:01:43;104319.22;;;-2.83;95.78
4273;BME280;63887;53.656;9.810;2023-02-07T01:04:09;104321.56;;;-2.87;95.89
4273;BME280;63887;53.656;9.810;2023-02-07T01:06:37;104319.88;;;-2.87;95.61
4273;BME280;63887;53.656;9.810;2023-02-07T01:09:04;104322.09;;;-2.93;95.80
4273;BME280;63887;53.656;9.810;2023-02-07T01:11:31;104319.53;;;-2.93;96.14
4273;BME280;63887;53.656;9.810;2023-02-07T01:13:57;104319.53;;;-2.93;95.67
4273;BME280;63887;53.656;9.810;2023-02-07T01:16:25;104317.03;;;-2.91;95.95
4273;BME280;63887;53.656;9.810;2023-02-07T01:18:52;104316.97;;;-2.93;95.98
4273;BME280;63887;53.656;9.810;2023-02-07T01:21:19;104318.56;;;-2.95;95.96
4273;BME280;63887;53.656;9.810;2023-02-07T01:23:47;104314.72;;;-3.02;96.25
4273;BME280;63887;53.656;9.810;2023-02-07T01:26:14;104314.47;;;-3.06;96.64
4273;BME280;63887;53.656;9.810;2023-02-07T01:28:41;104312.00;;;-3.05;96.28
4273;BME280;63887;53.656;9.810;2023-02-07T01:31:08;104307.81;;;-3.03;95.85
4273;BME280;63887;53.656;9.810;2023-02-07T01:33:34;104305.16;;;-3.04;96.16
4273;BME280;63887;53.656;9.810;2023-02-07T01:36:04;104312.69;;;-3.07;96.30
4273;BME280;63887;53.656;9.810;2023-02-07T01:38:30;104297.28;;;-3.07;95.81
4273;BME280;63887;53.656;9.810;2023-02-07T01:40:58;104287.75;;;-3.10;96.34
4273;BME280;63887;53.656;9.810;2023-02-07T01:43:24;104283.47;;;-3.09;95.83
4273;BME280;63887;53.656;9.810;2023-02-07T01:45:51;104290.22;;;-3.11;95.98
4273;BME280;63887;53.656;9.810;2023-02-07T01:48:19;104285.16;;;-3.10;95.89
4273;BME280;63887;53.656;9.810;2023-02-07T01:50:50;104288.44;;;-3.12;96.00
4273;BME280;63887;53.656;9.810;2023-02-07T01:53:18;104290.00;;;-3.14;96.30
4273;BME280;63887;53.656;9.810;2023-02-07T01:55:45;104289.03;;;-3.16;96.22
4273;BME280;63887;53.656;9.810;2023-02-07T01:58:14;104302.75;;;-3.16;96.08
4273;BME280;63887;53.656;9.810;2023-02-07T02:00:42;104308.78;;;-3.15;95.85
4273;BME280;63887;53.656;9.810;2023-02-07T02:03:09;104307.81;;;-3.17;96.15
4273;BME280;63887;53.656;9.810;2023-02-07T02:05:35;104305.25;;;-3.17;95.95
4273;BME280;63887;53.656;9.810;2023-02-07T02:08:02;104309.50;;;-3.18;95.93
4273;BME280;63887;53.656;9.810;2023-02-07T02:10:43;104311.25;;;-3.17;95.72
4273;BME280;63887;53.656;9.810;2023-02-07T02:13:17;104305.16;;;-3.19;95.75
4273;BME280;63887;53.656;9.810;2023-02-07T02:15:47;104312.06;;;-3.18;95.87
4273;BME280;63887;53.656;9.810;2023-02-07T02:18:24;104307.72;;;-3.19;95.60
4273;BME280;63887;53.656;9.810;2023-02-07T02:21:10;104304.19;;;-3.21;95.45
4273;BME280;63887;53.656;9.810;2023-02-07T02:23:46;104306.75;;;-3.21;95.36
4273;BME280;63887;53.656;9.810;2023-02-07T02:29:23;104296.81;;;-3.30;95.43
4273;BME280;63887;53.656;9.810;2023-02-07T02:34:46;104294.97;;;-3.32;95.26
4273;BME280;63887;53.656;9.810;2023-02-07T02:37:20;104278.59;;;-3.34;95.76
4273;BME280;63887;53.656;9.810;2023-02-07T02:39:52;104280.19;;;-3.36;95.13
4273;BME280;63887;53.656;9.810;2023-02-07T02:42:22;104280.59;;;-3.43;95.62
4273;BME280;63887;53.656;9.810;2023-02-07T02:44:52;104282.09;;;-3.47;96.11
4273;BME280;63887;53.656;9.810;2023-02-07T02:47:20;104277.16;;;-3.44;95.33
4273;BME280;63887;53.656;9.810;2023-02-07T02:49:49;104277.06;;;-3.45;95.79
4273;BME280;63887;53.656;9.810;2023-02-07T02:52:16;104284.94;;;-3.42;95.47
4273;BME280;63887;53.656;9.810;2023-02-07T02:54:42;104277.25;;;-3.42;95.59
4273;BME280;63887;53.656;9.810;2023-02-07T02:57:18;104270.06;;;-3.48;96.01
4273;BME280;63887;53.656;9.810;2023-02-07T03:00:00;104273.44;;;-3.49;96.34
4273;BME280;63887;53.656;9.810;2023-02-07T03:02:33;104270.78;;;-3.50;95.88
4273;BME280;63887;53.656;9.810;2023-02-07T03:05:06;104270.00;;;-3.49;96.17
4273;BME280;63887;53.656;9.810;2023-02-07T03:07:40;104277.69;;;-3.49;95.73
4273;BME280;63887;53.656;9.810;2023-02-07T03:10:12;104274.16;;;-3.51;96.03
4273;BME280;63887;53.656;9.810;2023-02-07T03:12:43;104262.03;;;-3.54;95.67
4273;BME280;63887;53.656;9.810;2023-02-07T03:15:15;104271.59;;;-3.51;96.24
4273;BME280;63887;53.656;9.810;2023-02-07T03:17:46;104274.06;;;-3.53;96.31
4273;BME280;63887;53.656;9.810;2023-02-07T03:20:18;104277.50;;;-3.52;96.38
4273;BME280;63887;53.656;9.810;2023-02-07T03:22:45;104267.34;;;-3.51;96.70
4273;BME280;63887;53.656;9.810;2023-02-07T03:25:13;104270.78;;;-3.50;96.17
4273;BME280;63887;53.656;9.810;2023-02-07T03:27:40;104262.19;;;-3.51;96.30
4273;BME280;63887;53.656;9.810;2023-02-07T03:30:08;104265.56;;;-3.52;95.84
4273;BME280;63887;53.656;9.810;2023-02-07T03:32:36;104268.22;;;-3.50;96.08
4273;BME280;63887;53.656;9.810;2023-02-07T03:35:04;104260.53;;;-3.50;95.99
4273;BME280;63887;53.656;9.810;2023-02-07T03:37:34;104260.59;;;-3.49;96.41
4273;BME280;63887;53.656;9.810;2023-02-07T03:40:02;104262.38;;;-3.48;96.84
4273;BME280;63887;53.656;9.810;2023-02-07T03:42:31;104252.91;;;-3.49;96.62
4273;BME280;63887;53.656;9.810;2023-02-07T03:44:58;104252.72;;;-3.52;96.70
4273;BME280;63887;53.656;9.810;2023-02-07T03:47:26;104243.25;;;-3.53;96.57
4273;BME280;63887;53.656;9.810;2023-02-07T03:49:52;104242.28;;;-3.55;96.14
4273;BME280;63887;53.656;9.810;2023-02-07T03:52:19;104235.28;;;-3.57;96.39
4273;BME280;63887;53.656;9.810;2023-02-07T03:54:47;104238.63;;;-3.58;96.60
4273;BME280;63887;53.656;9.810;2023-02-07T03:57:13;104244.47;;;-3.61;96.53
4273;BME280;63887;53.656;9.810;2023-02-07T03:59:39;104246.06;;;-3.63;96.16
4273;BME280;63887;53.656;9.810;2023-02-07T04:02:06;104238.47;;;-3.62;96.05
4273;BME280;63887;53.656;9.810;2023-02-07T04:04:32;104236.69;;;-3.63;96.22
4273;BME280;63887;53.656;9.810;2023-02-07T04:06:58;104236.59;;;-3.64;95.31
4273;BME280;63887;53.656;9.810;2023-02-07T04:09:25;104243.41;;;-3.65;95.72
4273;BME280;63887;53.656;9.810;2023-02-07T04:11:53;104243.94;;;-3.70;96.46
4273;BME280;63887;53.656;9.810;2023-02-07T04:14:19;104252.31;;;-3.73;96.21
4273;BME280;63887;53.656;9.810;2023-02-07T04:16:45;104255.69;;;-3.74;95.35
4273;BME280;63887;53.656;9.810;2023-02-07T04:19:12;104252.06;;;-3.77;95.39
4273;BME280;63887;53.656;9.810;2023-02-07T04:21:38;104255.59;;;-3.75;95.40
4273;BME280;63887;53.656;9.810;2023-02-07T04:24:05;104250.28;;;-3.78;95.35
4273;BME280;63887;53.656;9.810;2023-02-07T04:26:31;104251.16;;;-3.78;95.76
4273;BME280;63887;53.656;9.810;2023-02-07T04:28:59;104247.63;;;-3.80;96.07
4273;BME280;63887;53.656;9.810;2023-02-07T04:31:26;104256.91;;;-3.82;96.16
4273;BME280;63887;53.656;9.810;2023-02-07T04:33:52;104253.38;;;-3.84;95.89
4273;BME280;63887;53.656;9.810;2023-02-07T04:36:18;104256.75;;;-3.85;95.35
4273;BME280;63887;53.656;9.810;2023-02-07T04:38:46;104253.28;;;-3.85;95.44
4273;BME280;63887;53.656;9.810;2023-02-07T04:41:13;104263.63;;;-3.84;95.37
4273;BME280;63887;53.656;9.810;2023-02-07T04:43:39;104248.84;;;-3.88;95.48
4273;BME280;63887;53.656;9.810;2023-02-07T04:46:07;104250.50;;;-3.88;95.78
4273;BME280;63887;53.656;9.810;2023-02-07T04:48:34;104252.00;;;-3.92;96.15
4273;BME280;63887;53.656;9.810;2023-02-07T04:51:01;104253.69;;;-3.93;96.01
4273;BME280;63887;53.656;9.810;2023-02-07T04:53:27;104260.41;;;-3.95;95.73
4273;BME280;63887;53.656;9.810;2023-02-07T04:55:54;104260.50;;;-3.93;95.30
4273;BME280;63887;53.656;9.810;2023-02-07T04:58:20;104267.31;;;-3.94;95.43
4273;BME280;63887;53.656;9.810;2023-02-07T05:00:47;104256.09;;;-3.96;95.70
4273;BME280;63887;53.656;9.810;2023-02-07T05:03:15;104262.81;;;-3.98;95.46
4273;BME280;63887;53.656;9.810;2023-02-07T05:05:42;104262.63;;;-4.01;95.94
4273;BME280;63887;53.656;9.810;2023-02-07T05:08:09;104259.34;;;-3.98;96.20
4273;BME280;63887;53.656;9.810;2023-02-07T05:10:36;104254.94;;;-4.01;95.42
4273;BME280;63887;53.656;9.810;2023-02-07T05:13:03;104259.94;;;-4.02;96.55
4273;BME280;63887;53.656;9.810;2023-02-07T05:15:29;104261.59;;;-4.03;95.87
4273;BME280;63887;53.656;9.810;2023-02-07T05:17:56;104262.63;;;-4.01;95.56
4273;BME280;63887;53.656;9.810;2023-02-07T05:20:24;104264.78;;;-4.07;96.16
4273;BME280;63887;53.656;9.810;2023-02-07T05:22:50;104272.00;;;-4.01;95.76
4273;BME280;63887;53.656;9.810;2023-02-07T05:25:17;104274.66;;;-4.00;95.33
4273;BME280;63887;53.656;9.810;2023-02-07T05:27:43;104275.44;;;-4.01;95.58
4273;BME280;63887;53.656;9.810;2023-02-07T05:30:10;104283.88;;;-4.02;95.19
4273;BME280;63887;53.656;9.810;2023-02-07T05:32:37;104268.50;;;-4.02;95.49
4273;BME280;63887;53.656;9.810;2023-02-07T05:35:21;104276.19;;;-4.02;95.45
4273;BME280;63887;53.656;9.810;2023-02-07T05:37:49;104275.94;;;-4.06;96.12
4273;BME280;63887;53.656;9.810;2023-02-07T05:40:15;104279.28;;;-4.07;96.56
4273;BME280;63887;53.656;9.810;2023-02-07T05:42:41;104283.44;;;-4.09;96.67
4273;BME280;63887;53.656;9.810;2023-02-07T05:45:08;104286.09;;;-4.08;96.23
4273;BME280;63887;53.656;9.810;2023-02-07T05:47:35;104281.06;;;-4.06;96.49
4273;BME280;63887;53.656;9.810;2023-02-07T05:50:01;104287.94;;;-4.05;96.54
4273;BME280;63887;53.656;9.810;2023-02-07T05:52:28;104292.09;;;-4.07;96.60
4273;BME280;63887;53.656;9.810;2023-02-07T05:54:55;104287.69;;;-4.10;96.31
4273;BME280;63887;53.656;9.810;2023-02-07T05:57:22;104294.38;;;-4.12;96.06
4273;BME280;63887;53.656;9.810;2023-02-07T05:59:48;104293.41;;;-4.14;95.90
4273;BME280;63887;53.656;9.810;2023-02-07T06:02:14;104291.66;;;-4.15;96.04
4273;BME280;63887;53.656;9.810;2023-02-07T06:04:41;104300.22;;;-4.14;95.65
4273;BME280;63887;53.656;9.810;2023-02-07T06:07:07;104308.00;;;-4.13;95.31
4273;BME280;63887;53.656;9.810;2023-02-07T06:09:33;104307.50;;;-4.21;95.83
4273;BME280;63887;53.656;9.810;2023-02-07T06:12:01;104306.72;;;-4.20;96.22
4273;BME280;63887;53.656;9.810;2023-02-07T06:14:27;104307.69;;;-4.17;96.86
4273;BME280;63887;53.656;9.810;2023-02-07T06:16:54;104311.13;;;-4.17;96.05
4273;BME280;63887;53.656;9.810;2023-02-07T06:19:20;104312.16;;;-4.15;95.94
4273;BME280;63887;53.656;9.810;2023-02-07T06:21:46;104317.47;;;-4.12;95.78
4273;BME280;63887;53.656;9.810;2023-02-07T06:24:13;104312.06;;;-4.16;95.69
4273;BME280;63887;53.656;9.810;2023-02-07T06:26:40;104317.28;;;-4.15;95.83
4273;BME280;63887;53.656;9.810;2023-02-07T06:29:07;104313.53;;;-4.20;95.74
4273;BME280;63887;53.656;9.810;2023-02-07T06:31:34;104312.25;;;-4.27;95.86
4273;BME280;63887;53.656;9.810;2023-02-07T06:34:00;104314.63;;;-4.30;96.01
4273;BME280;63887;53.656;9.810;2023-02-07T06:36:26;104317.47;;;-4.25;96.05
4273;BME280;63887;53.656;9.810;2023-02-07T06:38:53;104323.22;;;-4.29;95.96
4273;BME280;63887;53.656;9.810;2023-02-07T06:41:19;104320.13;;;-4.24;96.21
4273;BME280;63887;53.656;9.810;2023-02-07T06:43:46;104319.25;;;-4.24;96.36
4273;BME280;63887;53.656;9.810;2023-02-07T06:46:14;104326.25;;;-4.22;95.99
4273;BME280;63887;53.656;9.810;2023-02-07T06:48:40;104336.41;;;-4.23;96.11
4273;BME280;63887;53.656;9.810;2023-02-07T06:51:06;104325.97;;;-4.26;95.98
4273;BME280;63887;53.656;9.810;2023-02-07T06:53:33;104330.09;;;-4.28;96.26
4273;BME280;63887;53.656;9.810;2023-02-07T06:55:59;104324.88;;;-4.30;96.18
4273;BME280;63887;53.656;9.810;2023-02-07T06:58:25;104331.88;;;-4.27;96.61
4273;BME280;63887;53.656;9.810;2023-02-07T07:00:52;104335.41;;;-4.25;95.74
4273;BME280;63887;53.656;9.810;2023-02-07T07:03:21;104324.09;;;-4.29;96.12
4273;BME280;63887;53.656;9.810;2023-02-07T07:05:51;104337.19;;;-4.24;95.93
4273;BME280;63887;53.656;9.810;2023-02-07T07:08:17;104342.31;;;-4.24;95.84
4273;BME280;63887;53.656;9.810;2023-02-07T07:10:43;104340.53;;;-4.25;95.63
4273;BME280;63887;53.656;9.810;2023-02-07T07:13:10;104343.38;;;-4.21;95.46
4273;BME280;63887;53.656;9.810;2023-02-07T07:15:36;104346.03;;;-4.19;96.27
4273;BME280;63887;53.656;9.810;2023-02-07T07:18:03;104340.34;;;-4.15;96.32
4273;BME280;63887;53.656;9.810;2023-02-07T07:20:31;104342.31;;;-4.11;96.21
4273;BME280;63887;53.656;9.810;2023-02-07T07:22:57;104347.53;;;-4.09;95.97
4273;BME280;63887;53.656;9.810;2023-02-07T07:25:23;104349.19;;;-4.10;95.63
4273;BME280;63887;53.656;9.810;2023-02-07T07:27:50;104341.88;;;-4.04;95.64
4273;BME280;63887;53.656;9.810;2023-02-07T07:30:17;104340.22;;;-4.03;95.64
4273;BME280;63887;53.656;9.810;2023-02-07T07:32:43;104345.66;;;-3.99;96.09
4273;BME280;63887;53.656;9.810;2023-02-07T07:35:10;104348.56;;;-3.93;95.78
4273;BME280;63887;53.656;9.810;2023-02-07T07:37:38;104342.84;;;-3.88;95.47
4273;BME280;63887;53.656;9.810;2023-02-07T07:40:06;104335.44;;;-3.84;95.59
4273;BME280;63887;53.656;9.810;2023-02-07T07:42:32;104342.25;;;-3.84;95.73
4273;BME280;63887;53.656;9.810;2023-02-07T07:45:14;104343.34;;;-3.81;95.88
4273;BME280;63887;53.656;9.810;2023-02-07T07:47:40;104344.56;;;-3.74;95.62
4273;BME280;63887;53.656;9.810;2023-02-07T07:50:07;104339.84;;;-3.68;95.30
4273;BME280;63887;53.656;9.810;2023-02-07T07:52:33;104337.56;;;-3.64;95.61
4273;BME280;63887;53.656;9.810;2023-02-07T07:55:01;104342.84;;;-3.61;95.98
4273;BME280;63887;53.656;9.810;2023-02-07T07:57:27;104348.97;;;-3.58;95.85
4273;BME280;63887;53.656;9.810;2023-02-07T07:59:54;104337.22;;;-3.55;95.88
4273;BME280;63887;53.656;9.810;2023-02-07T08:02:20;104344.72;;;-3.58;96.23
4273;BME280;63887;53.656;9.810;2023-02-07T08:04:48;104344.22;;;-3.52;96.49
4273;BME280;63887;53.656;9.810;2023-02-07T08:07:15;104340.16;;;-3.49;96.95
4273;BME280;63887;53.656;9.810;2023-02-07T08:09:42;104336.09;;;-3.45;96.52
4273;BME280;63887;53.656;9.810;2023-02-07T08:12:09;104327.41;;;-3.47;96.55
4273;BME280;63887;53.656;9.810;2023-02-07T08:14:36;104330.97;;;-3.45;96.52
4273;BME280;63887;53.656;9.810;2023-02-07T08:17:02;104328.78;;;-3.39;97.31
4273;BME280;63887;53.656;9.810;2023-02-07T08:19:29;104336.66;;;-3.36;96.82
4273;BME280;63887;53.656;9.810;2023-02-07T08:21:55;104340.47;;;-3.30;96.94
4273;BME280;63887;53.656;9.810;2023-02-07T08:24:22;104337.47;;;-3.22;96.85
4273;BME280;63887;53.656;9.810;2023-02-07T08:26:48;104335.88;;;-3.20;96.85
4273;BME280;63887;53.656;9.810;2023-02-07T08:29:16;104326.97;;;-3.12;96.84
4273;BME280;63887;53.656;9.810;2023-02-07T08:31:42;104322.19;;;-3.06;96.65
4273;BME280;63887;53.656;9.810;2023-02-07T08:34:09;104309.50;;;-3.03;97.00
4273;BME280;63887;53.656;9.810;2023-02-07T08:36:36;104322.00;;;-2.94;97.19
4273;BME280;63887;53.656;9.810;2023-02-07T08:39:03;104317.94;;;-2.91;97.59
4273;BME280;63887;53.656;9.810;2023-02-07T08:41:29;104318.00;;;-2.89;97.61
4273;BME280;63887;53.656;9.810;2023-02-07T08:43:56;104318.25;;;-2.85;97.38
4273;BME280;63887;53.656;9.810;2023-02-07T08:46:24;104317.75;;;-2.79;97.55
4273;BME280;63887;53.656;9.810;2023-02-07T08:48:50;104321.53;;;-2.73;97.33
4273;BME280;63887;53.656;9.810;2023-02-07T08:51:16;104320.13;;;-2.67;97.02
4273;BME280;63887;53.656;9.810;2023-02-07T08:53:43;104309.31;;;-2.62;97.10
4273;BME280;63887;53.656;9.810;2023-02-07T08:56:09;104312.28;;;-2.54;97.19
4273;BME280;63887;53.656;9.810;2023-02-07T08:58:35;104321.97;;;-2.50;97.44
4273;BME280;63887;53.656;9.810;2023-02-07T09:01:02;104314.59;;;-2.44;97.07
4273;BME280;63887;53.656;9.810;2023-02-07T09:03:29;104317.41;;;-2.40;97.07
4273;BME280;63887;53.656;9.810;2023-02-07T09:05:56;104312.47;;;-2.36;97.13
4273;BME280;63887;53.656;9.810;2023-02-07T09:08:23;104316.97;;;-2.32;97.05
4273;BME280;63887;53.656;9.810;2023-02-07T09:10:49;104315.53;;;-2.27;97.03
4273;BME280;63887;53.656;9.810;2023-02-07T09:13:15;104313.31;;;-2.21;96.45
4273;BME280;63887;53.656;9.810;2023-02-07T09:15:42;104318.69;;;-2.17;97.03
4273;BME280;63887;53.656;9.810;2023-02-07T09:18:08;104319.81;;;-2.12;96.77
4273;BME280;63887;53.656;9.810;2023-02-07T09:20:36;104312.19;;;-2.10;96.58
4273;BME280;63887;53.656;9.810;2023-02-07T09:23:04;104310.69;;;-2.06;96.80
4273;BME280;63887;53.656;9.810;2023-02-07T09:25:46;104308.44;;;-2.00;96.63
4273;BME280;63887;53.656;9.810;2023-02-07T09:28:13;104307.88;;;-1.95;96.76
4273;BME280;63887;53.656;9.810;2023-02-07T09:30:40;104315.84;;;-1.90;96.21
4273;BME280;63887;53.656;9.810;2023-02-07T09:33:06;104317.94;;;-1.83;96.36
4273;BME280;63887;53.656;9.810;2023-02-07T09:35:36;104319.63;;;-1.67;95.85
4273;BME280;63887;53.656;9.810;2023-02-07T09:38:03;104320.50;;;-1.67;95.53
4273;BME280;63887;53.656;9.810;2023-02-07T09:40:30;104314.81;;;-1.61;95.47
4273;BME280;63887;53.656;9.810;2023-02-07T09:42:57;104313.28;;;-1.58;95.93
4273;BME280;63887;53.656;9.810;2023-02-07T09:45:25;104312.16;;;-1.46;95.54
4273;BME280;63887;53.656;9.810;2023-02-07T09:47:56;104314.22;;;-1.39;95.46
4273;BME280;63887;53.656;9.810;2023-02-07T09:50:26;104315.19;;;-1.37;94.97
4273;BME280;63887;53.656;9.810;2023-02-07T09:52:55;104319.59;;;-1.35;94.94
4273;BME280;63887;53.656;9.810;2023-02-07T09:55:23;104313.75;;;-1.32;94.81
4273;BME280;63887;53.656;9.810;2023-02-07T09:57:51;104313.25;;;-1.25;94.21
4273;BME280;63887;53.656;9.810;2023-02-07T10:00:22;104315.25;;;-1.20;94.15
4273;BME280;63887;53.656;9.810;2023-02-07T10:02:51;104324.09;;;-1.14;93.61
4273;BME280;63887;53.656;9.810;2023-02-07T10:05:20;104317.06;;;-1.01;93.40
4273;BME280;63887;53.656;9.810;2023-02-07T10:07:48;104324.44;;;-0.91;93.07
4273;BME280;63887;53.656;9.810;2023-02-07T10:10:16;104321.72;;;-0.94;92.75
4273;BME280;63887;53.656;9.810;2023-02-07T10:12:47;104324.94;;;-0.98;92.69
4273;BME280;63887;53.656;9.810;2023-02-07T10:15:21;104331.22;;;-0.93;92.59
4273;BME280;63887;53.656;9.810;2023-02-07T10:17:53;104331.22;;;-0.93;93.01
4273;BME280;63887;53.656;9.810;2023-02-07T10:20:28;104328.00;;;-0.88;92.75
4273;BME280;63887;53.656;9.810;2023-02-07T10:22:59;104326.00;;;-0.76;92.17
4273;BME280;63887;53.656;9.810;2023-02-07T10:25:30;104322.31;;;-0.81;92.26
4273;BME280;63887;53.656;9.810;2023-02-07T10:28:19;104328.22;;;-0.84;92.80
4273;BME280;63887;53.656;9.810;2023-02-07T10:30:48;104321.22;;;-0.86;92.05
4273;BME280;63887;53.656;9.810;2023-02-07T10:33:17;104328.22;;;-0.84;92.58
4273;BME280;63887;53.656;9.810;2023-02-07T10:35:44;104309.44;;;-0.81;92.85
4273;BME280;63887;53.656;9.810;2023-02-07T10:38:20;104314.88;;;-0.75;92.38
4273;BME280;63887;53.656;9.810;2023-02-07T10:40:50;104300.63;;;-0.69;92.16
4273;BME280;63887;53.656;9.810;2023-02-07T10:43:20;104303.19;;;-0.69;92.41
4273;BME280;63887;53.656;9.810;2023-02-07T10:45:51;104307.53;;;-0.68;91.52
4273;BME280;63887;53.656;9.810;2023-02-07T10:48:19;104299.06;;;-0.65;91.95
4273;BME280;63887;53.656;9.810;2023-02-07T10:50:45;104299.38;;;-0.59;92.00
4273;BME280;63887;53.656;9.810;2023-02-07T10:53:11;104298.50;;;-0.59;91.66
4273;BME280;63887;53.656;9.810;2023-02-07T10:55:59;104295.91;;;-0.59;90.99
4273;BME280;63887;53.656;9.810;2023-02-07T10:58:32;104297.75;;;-0.57;91.21
4273;BME280;63887;53.656;9.810;2023-02-07T11:01:03;104287.50;;;-0.55;91.58
4273;BME280;63887;53.656;9.810;2023-02-07T11:03:29;104279.84;;;-0.54;90.68
4273;BME280;63887;53.656;9.810;2023-02-07T11:05:57;104286.09;;;-0.49;91.20
4273;BME280;63887;53.656;9.810;2023-02-07T11:08:24;104286.16;;;-0.47;91.49
4273;BME280;63887;53.656;9.810;2023-02-07T11:10:52;104288.00;;;-0.45;91.12
4273;BME280;63887;53.656;9.810;2023-02-07T11:13:21;104282.31;;;-0.38;90.97
4273;BME280;63887;53.656;9.810;2023-02-07T11:15:53;104277.31;;;-0.35;91.33
4273;BME280;63887;53.656;9.810;2023-02-07T11:18:28;104276.94;;;-0.24;90.13
4273;BME280;63887;53.656;9.810;2023-02-07T11:20:57;104265.88;;;-0.22;90.44
4273;BME280;63887;53.656;9.810;2023-02-07T11:23:24;104269.25;;;-0.23;90.21
4273;BME280;63887;53.656;9.810;2023-02-07T11:25:52;104272.28;;;-0.14;90.64
4273;BME280;63887;53.656;9.810;2023-02-07T11:28:21;104266.31;;;0.07;88.69
4273;BME280;63887;53.656;9.810;2023-02-07T11:30:50;104271.00;;;0.15;89.68
4273;BME280;63887;53.656;9.810;2023-02-07T11:33:20;104268.00;;;0.25;89.24
4273;BME280;63887;53.656;9.810;2023-02-07T11:36:00;104257.91;;;0.30;88.10
4273;BME280;63887;53.656;9.810;2023-02-07T11:38:29;104255.69;;;0.39;87.73
4273;BME280;63887;53.656;9.810;2023-02-07T11:40:57;104256.50;;;0.38;87.69
4273;BME280;63887;53.656;9.810;2023-02-07T11:43:27;104248.75;;;0.38;88.02
4273;BME280;63887;53.656;9.810;2023-02-07T11:45:53;104251.47;;;0.41;87.07
4273;BME280;63887;53.656;9.810;2023-02-07T11:48:24;104237.91;;;0.66;86.76
4273;BME280;63887;53.656;9.810;2023-02-07T11:50:53;104236.03;;;0.62;86.38
4273;BME280;63887;53.656;9.810;2023-02-07T11:53:21;104240.88;;;0.75;85.85
4273;BME280;63887;53.656;9.810;2023-02-07T11:55:48;104234.56;;;0.69;86.27
4273;BME280;63887;53.656;9.810;2023-02-07T11:58:16;104238.38;;;0.77;85.54
4273;BME280;63887;53.656;9.810;2023-02-07T12:00:46;104230.66;;;0.99;83.37
4273;BME280;63887;53.656;9.810;2023-02-07T12:03:17;104228.66;;;0.92;84.25
4273;BME280;63887;53.656;9.810;2023-02-07T12:05:47;104230.75;;;0.80;85.01
4273;BME280;63887;53.656;9.810;2023-02-07T12:08:16;104230.41;;;0.72;84.86
4273;BME280;63887;53.656;9.810;2023-02-07T12:10:44;104219.69;;;0.84;84.20
4273;BME280;63887;53.656;9.810;2023-02-07T12:13:12;104215.41;;;0.84;84.52
4273;BME280;63887;53.656;9.810;2023-02-07T12:15:40;104217.03;;;1.03;83.00
4273;BME280;63887;53.656;9.810;2023-02-07T12:18:12;104216.91;;;1.00;83.01
4273;BME280;63887;53.656;9.810;2023-02-07T12:20:41;104222.34;;;1.06;83.13
4273;BME280;63887;53.656;9.810;2023-02-07T12:23:12;104211.25;;;1.09;83.09
4273;BME280;63887;53.656;9.810;2023-02-07T12:25:44;104212.13;;;1.09;82.57
4273;BME280;63887;53.656;9.810;2023-02-07T12:28:14;104220.69;;;1.08;82.23
4273;BME280;63887;53.656;9.810;2023-02-07T12:30:44;104223.22;;;1.07;82.21
4273;BME280;63887;53.656;9.810;2023-02-07T12:33:17;104218.88;;;1.06;81.89
4273;BME280;63887;53.656;9.810;2023-02-07T12:35:47;104222.34;;;1.06;81.72
4273;BME280;63887;53.656;9.810;2023-02-07T12:38:20;104223.47;;;1.13;80.62
4273;BME280;63887;53.656;9.810;2023-02-07T12:40:50;104218.72;;;1.03;81.15
4273;BME280;63887;53.656;9.810;2023-02-07T12:43:20;104223.22;;;1.07;81.63
4273;BME280;63887;53.656;9.810;2023-02-07T12:45:53;104224.84;;;1.26;81.02
4273;BME280;63887;53.656;9.810;2023-02-07T12:48:26;104239.34;;;1.22;81.42
4273;BME280;63887;53.656;9.810;2023-02-07T12:51:00;104237.44;;;1.18;81.18
4273;BME280;63887;53.656;9.810;2023-02-07T12:53:32;104231.22;;;1.13;81.03
4273;BME280;63887;53.656;9.810;2023-02-07T12:56:04;104225.28;;;1.15;80.62
4273;BME280;63887;53.656;9.810;2023-02-07T12:58:37;104213.66;;;1.27;80.02
4273;BME280;63887;53.656;9.810;2023-02-07T13:01:06;104209.44;;;1.29;80.53
4273;BME280;63887;53.656;9.810;2023-02-07T13:03:40;104213.66;;;1.27;80.04
4273;BME280;63887;53.656;9.810;2023-02-07T13:06:15;104214.44;;;1.24;80.19
4273;BME280;63887;53.656;9.810;2023-02-07T13:08:47;104210.75;;;1.19;80.98
4273;BME280;63887;53.656;9.810;2023-02-07T13:11:20;104223.63;;;1.17;80.72
4273;BME280;63887;53.656;9.810;2023-02-07T13:13:51;104222.19;;;1.24;79.32